sensor_id;sensor_type;location;lat;lon;timestamp;temperature;humidity
70244;DHT22;57634;51.136;17.024;2023-03-03T00:00:38;3.90;80.60
70244;DHT22;57634;51.136;17.024;2023-03-03T00:03:44;3.90;80.50
70244;DHT22;57634;51.136;17.024;2023-03-03T00:06:46;3.90;80.40
70244;DHT22;57634;51.136;17.024;2023-03-03T00:09:48;3.90;80.30
70244;DHT22;57634;51.136;17.024;2023-03-03T00:13:23;3.90;80.40
70244;DHT22;57634;51.136;17.024;2023-03-03T00:16:31;3.80;80.40
70244;DHT22;57634;51.136;17.024;2023-03-03T00:19:38;3.80;80.40
70244;DHT22;57634;51.136;17.024;2023-03-03T00:22:42;3.80;80.50
70244;DHT22;57634;51.136;17.024;2023-03-03T00:25:45;3.80;80.60
70244;DHT22;57634;51.136;17.024;2023-03-03T00:28:54;3.80;80.60
70244;DHT22;57634;51.136;17.024;2023-03-03T00:35:36;3.80;80.60
70244;DHT22;57634;51.136;17.024;2023-03-03T00:38:39;3.80;80.60
70244;DHT22;57634;51.136;17.024;2023-03-03T00:41:40;3.80;80.60
70244;DHT22;57634;51.136;17.024;2023-03-03T00:44:44;3.70;80.50
70244;DHT22;57634;51.136;17.024;2023-03-03T00:47:46;3.70;80.60
70244;DHT22;57634;51.136;17.024;2023-03-03T00:51:55;3.70;80.60
70244;DHT22;57634;51.136;17.024;2023-03-03T00:54:56;3.60;80.60
70244;DHT22;57634;51.136;17.024;2023-03-03T00:57:57;3.60;80.70
70244;DHT22;57634;51.136;17.024;2023-03-03T01:00:58;3.60;80.90
70244;DHT22;57634;51.136;17.024;2023-03-03T01:03:59;3.60;81.00
70244;DHT22;57634;51.136;17.024;2023-03-03T01:07:01;3.50;80.90
70244;DHT22;57634;51.136;17.024;2023-03-03T01:10:03;3.50;80.90
70244;DHT22;57634;51.136;17.024;2023-03-03T01:13:05;3.50;80.90
70244;DHT22;57634;51.136;17.024;2023-03-03T01:16:08;3.50;80.90
70244;DHT22;57634;51.136;17.024;2023-03-03T01:19:09;3.50;80.90
70244;DHT22;57634;51.136;17.024;2023-03-03T01:22:11;3.50;80.80
70244;DHT22;57634;51.136;17.024;2023-03-03T01:25:12;3.50;80.80
70244;DHT22;57634;51.136;17.024;2023-03-03T01:28:13;3.50;80.80
70244;DHT22;57634;51.136;17.024;2023-03-03T01:31:15;3.50;80.70
70244;DHT22;57634;51.136;17.024;2023-03-03T01:34:42;3.50;80.80
70244;DHT22;57634;51.136;17.024;2023-03-03T01:37:43;3.50;80.80
70244;DHT22;57634;51.136;17.024;2023-03-03T01:40:53;3.50;80.90
70244;DHT22;57634;51.136;17.024;2023-03-03T01:43:55;3.50;80.90
70244;DHT22;57634;51.136;17.024;2023-03-03T01:47:06;3.50;80.70
70244;DHT22;57634;51.136;17.024;2023-03-03T01:50:14;3.50;80.70
70244;DHT22;57634;51.136;17.024;2023-03-03T01:53:21;3.50;80.90
70244;DHT22;57634;51.136;17.024;2023-03-03T01:56:55;3.40;80.80
70244;DHT22;57634;51.136;17.024;2023-03-03T01:59:59;3.40;80.90
70244;DHT22;57634;51.136;17.024;2023-03-03T02:03:02;3.40;81.00
70244;DHT22;57634;51.136;17.024;2023-03-03T02:06:08;3.40;81.10
70244;DHT22;57634;51.136;17.024;2023-03-03T02:12:35;3.40;80.90
70244;DHT22;57634;51.136;17.024;2023-03-03T02:16:04;3.50;81.00
70244;DHT22;57634;51.136;17.024;2023-03-03T02:19:16;3.40;80.90
70244;DHT22;57634;51.136;17.024;2023-03-03T02:22:21;3.40;80.90
70244;DHT22;57634;51.136;17.024;2023-03-03T02:28:37;3.30;80.70
70244;DHT22;57634;51.136;17.024;2023-03-03T02:31:38;3.30;80.80
70244;DHT22;57634;51.136;17.024;2023-03-03T02:34:46;3.30;80.90
70244;DHT22;57634;51.136;17.024;2023-03-03T02:44:41;3.30;81.10
70244;DHT22;57634;51.136;17.024;2023-03-03T02:47:50;3.30;81.20
70244;DHT22;57634;51.136;17.024;2023-03-03T02:50:52;3.40;81.10
70244;DHT22;57634;51.136;17.024;2023-03-03T02:53:53;3.40;81.10
70244;DHT22;57634;51.136;17.024;2023-03-03T02:56:54;3.40;81.10
70244;DHT22;57634;51.136;17.024;2023-03-03T03:00:23;3.30;81.10
70244;DHT22;57634;51.136;17.024;2023-03-03T03:03:24;3.40;81.30
70244;DHT22;57634;51.136;17.024;2023-03-03T03:06:25;3.40;81.30
70244;DHT22;57634;51.136;17.024;2023-03-03T03:09:27;3.30;81.30
70244;DHT22;57634;51.136;17.024;2023-03-03T03:12:28;3.30;81.30
70244;DHT22;57634;51.136;17.024;2023-03-03T03:15:30;3.30;81.20
70244;DHT22;57634;51.136;17.024;2023-03-03T03:18:31;3.20;81.30
70244;DHT22;57634;51.136;17.024;2023-03-03T03:21:33;3.20;81.40
70244;DHT22;57634;51.136;17.024;2023-03-03T03:24:35;3.20;81.40
70244;DHT22;57634;51.136;17.024;2023-03-03T03:27:36;3.20;81.40
70244;DHT22;57634;51.136;17.024;2023-03-03T03:30:38;3.10;81.50
70244;DHT22;57634;51.136;17.024;2023-03-03T03:33:39;3.10;81.50
70244;DHT22;57634;51.136;17.024;2023-03-03T03:36:40;3.10;81.50
70244;DHT22;57634;51.136;17.024;2023-03-03T03:39:42;3.10;81.60
70244;DHT22;57634;51.136;17.024;2023-03-03T03:43:13;3.10;81.60
70244;DHT22;57634;51.136;17.024;2023-03-03T03:46:14;3.10;81.60
70244;DHT22;57634;51.136;17.024;2023-03-03T03:49:16;3.10;81.50
70244;DHT22;57634;51.136;17.024;2023-03-03T03:52:17;3.10;81.70
70244;DHT22;57634;51.136;17.024;2023-03-03T03:55:18;3.10;81.60
70244;DHT22;57634;51.136;17.024;2023-03-03T03:58:21;3.10;81.70
70244;DHT22;57634;51.136;17.024;2023-03-03T04:01:22;3.10;81.70
70244;DHT22;57634;51.136;17.024;2023-03-03T04:04:26;3.10;81.70
70244;DHT22;57634;51.136;17.024;2023-03-03T04:07:28;3.10;81.80
70244;DHT22;57634;51.136;17.024;2023-03-03T04:10:29;3.10;81.70
70244;DHT22;57634;51.136;17.024;2023-03-03T04:13:31;3.10;81.70
70244;DHT22;57634;51.136;17.024;2023-03-03T04:16:34;3.10;81.70
70244;DHT22;57634;51.136;17.024;2023-03-03T04:19:36;3.10;81.70
70244;DHT22;57634;51.136;17.024;2023-03-03T04:23:06;3.10;81.70
70244;DHT22;57634;51.136;17.024;2023-03-03T04:26:07;3.10;81.70
70244;DHT22;57634;51.136;17.024;2023-03-03T04:29:10;3.10;81.80
70244;DHT22;57634;51.136;17.024;2023-03-03T04:32:11;3.00;81.70
70244;DHT22;57634;51.136;17.024;2023-03-03T04:35:12;3.00;81.90
70244;DHT22;57634;51.136;17.024;2023-03-03T04:38:13;3.00;81.90
70244;DHT22;57634;51.136;17.024;2023-03-03T04:41:15;3.00;81.70
70244;DHT22;57634;51.136;17.024;2023-03-03T04:44:16;3.00;81.90
70244;DHT22;57634;51.136;17.024;2023-03-03T04:47:18;3.00;81.90
70244;DHT22;57634;51.136;17.024;2023-03-03T04:50:20;3.00;81.90
70244;DHT22;57634;51.136;17.024;2023-03-03T04:53:21;3.00;81.80
70244;DHT22;57634;51.136;17.024;2023-03-03T04:56:22;3.00;81.90
70244;DHT22;57634;51.136;17.024;2023-03-03T04:59:23;3.00;81.80
70244;DHT22;57634;51.136;17.024;2023-03-03T05:02:24;3.00;81.70
70244;DHT22;57634;51.136;17.024;2023-03-03T05:05:26;3.00;81.70
70244;DHT22;57634;51.136;17.024;2023-03-03T05:08:53;3.00;81.70
70244;DHT22;57634;51.136;17.024;2023-03-03T05:11:55;3.00;81.60
70244;DHT22;57634;51.136;17.024;2023-03-03T05:14:56;3.00;81.40
70244;DHT22;57634;51.136;17.024;2023-03-03T05:17:57;3.00;81.50
70244;DHT22;57634;51.136;17.024;2023-03-03T05:20:58;2.90;81.40
70244;DHT22;57634;51.136;17.024;2023-03-03T05:24:00;2.90;81.50
70244;DHT22;57634;51.136;17.024;2023-03-03T05:27:01;2.90;81.50
70244;DHT22;57634;51.136;17.024;2023-03-03T05:30:04;2.90;81.60
70244;DHT22;57634;51.136;17.024;2023-03-03T05:33:06;2.80;81.50
70244;DHT22;57634;51.136;17.024;2023-03-03T05:36:07;2.80;81.40
70244;DHT22;57634;51.136;17.024;2023-03-03T05:39:08;2.90;81.50
70244;DHT22;57634;51.136;17.024;2023-03-03T05:42:13;2.90;81.30
70244;DHT22;57634;51.136;17.024;2023-03-03T05:45:15;2.90;81.30
70244;DHT22;57634;51.136;17.024;2023-03-03T05:48:46;2.90;81.30
70244;DHT22;57634;51.136;17.024;2023-03-03T05:51:47;2.90;81.40
70244;DHT22;57634;51.136;17.024;2023-03-03T05:54:48;2.80;81.30
70244;DHT22;57634;51.136;17.024;2023-03-03T05:57:49;2.80;81.30
70244;DHT22;57634;51.136;17.024;2023-03-03T06:00:51;2.90;81.50
70244;DHT22;57634;51.136;17.024;2023-03-03T06:03:52;2.90;81.40
70244;DHT22;57634;51.136;17.024;2023-03-03T06:06:54;2.90;81.40
70244;DHT22;57634;51.136;17.024;2023-03-03T06:09:56;2.90;81.40
70244;DHT22;57634;51.136;17.024;2023-03-03T06:12:57;2.90;81.30
70244;DHT22;57634;51.136;17.024;2023-03-03T06:15:58;2.90;81.30
70244;DHT22;57634;51.136;17.024;2023-03-03T06:19:00;2.90;81.30
70244;DHT22;57634;51.136;17.024;2023-03-03T06:22:01;2.90;81.30
70244;DHT22;57634;51.136;17.024;2023-03-03T06:25:04;2.90;81.20
70244;DHT22;57634;51.136;17.024;2023-03-03T06:28:05;2.80;81.10
70244;DHT22;57634;51.136;17.024;2023-03-03T06:31:06;2.80;81.30
70244;DHT22;57634;51.136;17.024;2023-03-03T06:34:33;2.80;81.40
70244;DHT22;57634;51.136;17.024;2023-03-03T06:37:35;2.70;81.50
70244;DHT22;57634;51.136;17.024;2023-03-03T06:40:36;2.70;81.50
70244;DHT22;57634;51.136;17.024;2023-03-03T06:43:37;2.60;81.60
70244;DHT22;57634;51.136;17.024;2023-03-03T06:46:39;2.50;81.60
70244;DHT22;57634;51.136;17.024;2023-03-03T06:49:40;2.50;81.80
70244;DHT22;57634;51.136;17.024;2023-03-03T06:52:42;2.50;81.90
70244;DHT22;57634;51.136;17.024;2023-03-03T06:55:44;2.50;82.00
70244;DHT22;57634;51.136;17.024;2023-03-03T06:58:45;2.50;81.70
70244;DHT22;57634;51.136;17.024;2023-03-03T07:01:48;2.50;81.60
70244;DHT22;57634;51.136;17.024;2023-03-03T07:04:52;2.40;81.90
70244;DHT22;57634;51.136;17.024;2023-03-03T07:07:56;2.40;82.00
70244;DHT22;57634;51.136;17.024;2023-03-03T07:11:01;2.40;81.90
70244;DHT22;57634;51.136;17.024;2023-03-03T07:14:34;2.40;81.90
70244;DHT22;57634;51.136;17.024;2023-03-03T07:17:41;2.30;81.90
70244;DHT22;57634;51.136;17.024;2023-03-03T07:20:43;2.30;81.90
70244;DHT22;57634;51.136;17.024;2023-03-03T07:23:47;2.40;81.90
70244;DHT22;57634;51.136;17.024;2023-03-03T07:26:48;2.40;81.70
70244;DHT22;57634;51.136;17.024;2023-03-03T07:29:52;2.40;81.70
70244;DHT22;57634;51.136;17.024;2023-03-03T07:32:55;2.40;81.60
70244;DHT22;57634;51.136;17.024;2023-03-03T07:35:58;2.40;81.60
70244;DHT22;57634;51.136;17.024;2023-03-03T07:39:19;2.50;81.40
70244;DHT22;57634;51.136;17.024;2023-03-03T07:42:44;2.50;81.30
70244;DHT22;57634;51.136;17.024;2023-03-03T07:45:45;2.50;81.20
70244;DHT22;57634;51.136;17.024;2023-03-03T07:48:47;2.60;81.00
70244;DHT22;57634;51.136;17.024;2023-03-03T07:51:54;2.60;80.80
70244;DHT22;57634;51.136;17.024;2023-03-03T07:55:00;2.60;80.70
70244;DHT22;57634;51.136;17.024;2023-03-03T08:04:55;2.80;80.40
70244;DHT22;57634;51.136;17.024;2023-03-03T08:11:10;2.80;80.10
70244;DHT22;57634;51.136;17.024;2023-03-03T08:14:13;2.90;79.90
70244;DHT22;57634;51.136;17.024;2023-03-03T08:17:26;2.90;79.60
70244;DHT22;57634;51.136;17.024;2023-03-03T08:20:38;2.80;79.30
70244;DHT22;57634;51.136;17.024;2023-03-03T08:24:08;2.80;79.40
70244;DHT22;57634;51.136;17.024;2023-03-03T08:27:09;2.80;79.50
70244;DHT22;57634;51.136;17.024;2023-03-03T08:30:12;2.80;79.50
70244;DHT22;57634;51.136;17.024;2023-03-03T08:33:14;2.80;79.60
70244;DHT22;57634;51.136;17.024;2023-03-03T08:36:15;2.90;79.60
70244;DHT22;57634;51.136;17.024;2023-03-03T08:39:17;2.90;79.70
70244;DHT22;57634;51.136;17.024;2023-03-03T08:42:18;3.00;79.40
70244;DHT22;57634;51.136;17.024;2023-03-03T08:45:20;3.10;79.10
70244;DHT22;57634;51.136;17.024;2023-03-03T08:48:21;3.10;78.90
70244;DHT22;57634;51.136;17.024;2023-03-03T08:51:23;3.10;78.90
70244;DHT22;57634;51.136;17.024;2023-03-03T08:54:26;3.20;78.90
70244;DHT22;57634;51.136;17.024;2023-03-03T08:57:27;3.20;78.70
70244;DHT22;57634;51.136;17.024;2023-03-03T09:00:28;3.30;78.60
70244;DHT22;57634;51.136;17.024;2023-03-03T09:03:30;3.30;78.50
70244;DHT22;57634;51.136;17.024;2023-03-03T09:06:58;3.30;78.30
70244;DHT22;57634;51.136;17.024;2023-03-03T09:09:59;3.30;78.20
70244;DHT22;57634;51.136;17.024;2023-03-03T09:13:10;3.40;78.20
70244;DHT22;57634;51.136;17.024;2023-03-03T09:16:13;3.40;78.10
70244;DHT22;57634;51.136;17.024;2023-03-03T09:22:35;3.40;78.00
70244;DHT22;57634;51.136;17.024;2023-03-03T09:25:38;3.40;78.10
70244;DHT22;57634;51.136;17.024;2023-03-03T09:29:17;3.50;77.90
70244;DHT22;57634;51.136;17.024;2023-03-03T09:35:37;3.40;78.00
70244;DHT22;57634;51.136;17.024;2023-03-03T09:38:43;3.40;78.00
70244;DHT22;57634;51.136;17.024;2023-03-03T10:18:45;3.70;77.10
70244;DHT22;57634;51.136;17.024;2023-03-03T10:39:01;3.70;76.70
70244;DHT22;57634;51.136;17.024;2023-03-03T10:42:15;3.70;76.80
70244;DHT22;57634;51.136;17.024;2023-03-03T10:48:50;3.80;76.70
70244;DHT22;57634;51.136;17.024;2023-03-03T10:52:25;3.90;76.70
70244;DHT22;57634;51.136;17.024;2023-03-03T11:01:58;4.10;76.30
70244;DHT22;57634;51.136;17.024;2023-03-03T11:05:14;4.10;76.10
70244;DHT22;57634;51.136;17.024;2023-03-03T11:08:42;4.10;75.80
70244;DHT22;57634;51.136;17.024;2023-03-03T11:18:22;4.40;75.30
70244;DHT22;57634;51.136;17.024;2023-03-03T11:28:30;4.40;75.00
70244;DHT22;57634;51.136;17.024;2023-03-03T11:34:59;4.50;74.60
70244;DHT22;57634;51.136;17.024;2023-03-03T11:38:37;4.60;74.50
70244;DHT22;57634;51.136;17.024;2023-03-03T11:44:55;4.80;73.80
70244;DHT22;57634;51.136;17.024;2023-03-03T11:54:55;4.60;73.50
70244;DHT22;57634;51.136;17.024;2023-03-03T12:38:10;4.70;73.40
70244;DHT22;57634;51.136;17.024;2023-03-03T12:44:34;4.80;73.30
70244;DHT22;57634;51.136;17.024;2023-03-03T12:47:41;4.80;73.00
70244;DHT22;57634;51.136;17.024;2023-03-03T12:51:00;4.90;72.80
70244;DHT22;57634;51.136;17.024;2023-03-03T13:14:29;5.00;72.30
70244;DHT22;57634;51.136;17.024;2023-03-03T13:27:44;5.00;72.20
70244;DHT22;57634;51.136;17.024;2023-03-03T13:30:49;5.00;72.00
70244;DHT22;57634;51.136;17.024;2023-03-03T13:33:57;5.00;72.00
70244;DHT22;57634;51.136;17.024;2023-03-03T13:37:35;5.10;72.00
70244;DHT22;57634;51.136;17.024;2023-03-03T13:40:44;5.10;71.90
70244;DHT22;57634;51.136;17.024;2023-03-03T13:50:55;5.20;71.50
70244;DHT22;57634;51.136;17.024;2023-03-03T14:00:30;5.30;71.30
70244;DHT22;57634;51.136;17.024;2023-03-03T14:07:27;5.30;71.30
70244;DHT22;57634;51.136;17.024;2023-03-03T14:10:28;5.30;71.00
70244;DHT22;57634;51.136;17.024;2023-03-03T14:16:51;5.20;71.30
70244;DHT22;57634;51.136;17.024;2023-03-03T14:26:56;5.30;71.10
70244;DHT22;57634;51.136;17.024;2023-03-03T14:29:57;5.30;71.10
70244;DHT22;57634;51.136;17.024;2023-03-03T14:36:19;5.20;71.30
70244;DHT22;57634;51.136;17.024;2023-03-03T14:40:03;5.20;71.40
70244;DHT22;57634;51.136;17.024;2023-03-03T14:49:35;5.20;71.30
70244;DHT22;57634;51.136;17.024;2023-03-03T14:52:38;5.10;71.40
70244;DHT22;57634;51.136;17.024;2023-03-03T14:59:25;5.10;71.40
70244;DHT22;57634;51.136;17.024;2023-03-03T15:02:30;5.00;71.50
70244;DHT22;57634;51.136;17.024;2023-03-03T15:05:32;5.00;71.50
70244;DHT22;57634;51.136;17.024;2023-03-03T15:08:35;5.00;71.50
70244;DHT22;57634;51.136;17.024;2023-03-03T15:11:37;5.00;71.50
70244;DHT22;57634;51.136;17.024;2023-03-03T15:14:44;4.90;71.50
70244;DHT22;57634;51.136;17.024;2023-03-03T15:17:57;4.90;71.60
70244;DHT22;57634;51.136;17.024;2023-03-03T15:21:32;4.80;71.60
70244;DHT22;57634;51.136;17.024;2023-03-03T15:24:44;4.70;71.70
70244;DHT22;57634;51.136;17.024;2023-03-03T15:27:52;4.60;72.00
70244;DHT22;57634;51.136;17.024;2023-03-03T15:31:08;4.70;72.10
70244;DHT22;57634;51.136;17.024;2023-03-03T15:34:20;4.70;72.10
70244;DHT22;57634;51.136;17.024;2023-03-03T15:37:58;4.60;72.30
70244;DHT22;57634;51.136;17.024;2023-03-03T15:44:21;4.70;72.50
70244;DHT22;57634;51.136;17.024;2023-03-03T15:51:18;4.60;72.60
70244;DHT22;57634;51.136;17.024;2023-03-03T15:54:28;4.60;72.70
70244;DHT22;57634;51.136;17.024;2023-03-03T15:57:50;4.50;72.90
70244;DHT22;57634;51.136;17.024;2023-03-03T16:04:31;4.50;72.90
70244;DHT22;57634;51.136;17.024;2023-03-03T16:27:34;4.10;73.60
70244;DHT22;57634;51.136;17.024;2023-03-03T16:34:29;4.10;73.80
70244;DHT22;57634;51.136;17.024;2023-03-03T16:37:37;4.00;74.00
70244;DHT22;57634;51.136;17.024;2023-03-03T16:40:57;3.90;74.10
70244;DHT22;57634;51.136;17.024;2023-03-03T16:44:08;3.90;74.20
70244;DHT22;57634;51.136;17.024;2023-03-03T16:54:09;3.80;74.60
70244;DHT22;57634;51.136;17.024;2023-03-03T17:04:11;3.80;74.80
70244;DHT22;57634;51.136;17.024;2023-03-03T17:10:40;3.70;75.00
70244;DHT22;57634;51.136;17.024;2023-03-03T17:13:55;3.70;75.00
70244;DHT22;57634;51.136;17.024;2023-03-03T17:34:12;3.60;75.80
70244;DHT22;57634;51.136;17.024;2023-03-03T17:40:40;3.60;75.90
70244;DHT22;57634;51.136;17.024;2023-03-03T17:44:19;3.60;75.80
70244;DHT22;57634;51.136;17.024;2023-03-03T18:00:58;3.60;76.30
70244;DHT22;57634;51.136;17.024;2023-03-03T18:07:16;3.60;76.30
70244;DHT22;57634;51.136;17.024;2023-03-03T18:17:23;3.50;76.40
70244;DHT22;57634;51.136;17.024;2023-03-03T18:33:58;3.20;77.30
70244;DHT22;57634;51.136;17.024;2023-03-03T18:37:38;3.20;77.30
70244;DHT22;57634;51.136;17.024;2023-03-03T18:44:00;3.20;77.50
70244;DHT22;57634;51.136;17.024;2023-03-03T18:47:04;3.20;77.50
70244;DHT22;57634;51.136;17.024;2023-03-03T18:50:14;3.10;77.60
70244;DHT22;57634;51.136;17.024;2023-03-03T19:13:38;3.30;77.90
70244;DHT22;57634;51.136;17.024;2023-03-03T19:16:41;3.30;77.90
70244;DHT22;57634;51.136;17.024;2023-03-03T19:30:09;3.30;77.80
70244;DHT22;57634;51.136;17.024;2023-03-03T19:53:27;2.90;78.50
70244;DHT22;57634;51.136;17.024;2023-03-03T19:59:53;2.90;78.90
70244;DHT22;57634;51.136;17.024;2023-03-03T20:06:47;2.80;79.10
70244;DHT22;57634;51.136;17.024;2023-03-03T20:13:11;2.70;79.40
70244;DHT22;57634;51.136;17.024;2023-03-03T20:16:43;2.70;79.50
70244;DHT22;57634;51.136;17.024;2023-03-03T20:20:01;2.70;79.50
70244;DHT22;57634;51.136;17.024;2023-03-03T20:26:27;2.70;79.90
70244;DHT22;57634;51.136;17.024;2023-03-03T20:39:56;2.80;79.70
70244;DHT22;57634;51.136;17.024;2023-03-03T21:00:05;2.90;79.80
70244;DHT22;57634;51.136;17.024;2023-03-03T21:03:17;2.90;79.90
70244;DHT22;57634;51.136;17.024;2023-03-03T21:06:21;2.80;80.00
70244;DHT22;57634;51.136;17.024;2023-03-03T21:16:28;2.70;80.40
70244;DHT22;57634;51.136;17.024;2023-03-03T21:19:32;2.70;80.50
70244;DHT22;57634;51.136;17.024;2023-03-03T21:22:34;2.70;80.60
70244;DHT22;57634;51.136;17.024;2023-03-03T21:28:57;2.70;80.60
70244;DHT22;57634;51.136;17.024;2023-03-03T21:32:37;2.80;80.70
70244;DHT22;57634;51.136;17.024;2023-03-03T21:38:52;2.80;80.80
70244;DHT22;57634;51.136;17.024;2023-03-03T21:42:01;2.80;80.80
70244;DHT22;57634;51.136;17.024;2023-03-03T21:45:12;2.80;80.60
70244;DHT22;57634;51.136;17.024;2023-03-03T21:48:41;2.70;81.00
70244;DHT22;57634;51.136;17.024;2023-03-03T21:51:42;2.70;81.20
70244;DHT22;57634;51.136;17.024;2023-03-03T21:54:45;2.70;81.30
70244;DHT22;57634;51.136;17.024;2023-03-03T21:57:47;2.70;81.30
70244;DHT22;57634;51.136;17.024;2023-03-03T22:00:48;2.70;81.40
70244;DHT22;57634;51.136;17.024;2023-03-03T22:03:50;2.70;81.40
70244;DHT22;57634;51.136;17.024;2023-03-03T22:06:51;2.60;81.50
70244;DHT22;57634;51.136;17.024;2023-03-03T22:09:52;2.60;81.60
70244;DHT22;57634;51.136;17.024;2023-03-03T22:12:54;2.60;81.60
70244;DHT22;57634;51.136;17.024;2023-03-03T22:15:55;2.60;81.70
70244;DHT22;57634;51.136;17.024;2023-03-03T22:18:56;2.70;81.90
70244;DHT22;57634;51.136;17.024;2023-03-03T22:21:58;2.70;81.80
70244;DHT22;57634;51.136;17.024;2023-03-03T22:24:59;2.70;81.80
70244;DHT22;57634;51.136;17.024;2023-03-03T22:28:00;2.60;81.80
70244;DHT22;57634;51.136;17.024;2023-03-03T22:31:02;2.60;82.00
70244;DHT22;57634;51.136;17.024;2023-03-03T22:34:29;2.60;82.10
70244;DHT22;57634;51.136;17.024;2023-03-03T22:37:30;2.70;82.30
70244;DHT22;57634;51.136;17.024;2023-03-03T22:40:31;2.60;82.20
70244;DHT22;57634;51.136;17.024;2023-03-03T22:43:33;2.60;82.00
70244;DHT22;57634;51.136;17.024;2023-03-03T22:46:35;2.60;82.00
70244;DHT22;57634;51.136;17.024;2023-03-03T22:49:36;2.60;82.10
70244;DHT22;57634;51.136;17.024;2023-03-03T22:52:37;2.60;82.20
70244;DHT22;57634;51.136;17.024;2023-03-03T22:55:39;2.60;82.20
70244;DHT22;57634;51.136;17.024;2023-03-03T22:58:40;2.60;82.20
70244;DHT22;57634;51.136;17.024;2023-03-03T23:01:41;2.60;82.20
70244;DHT22;57634;51.136;17.024;2023-03-03T23:04:43;2.70;82.20
70244;DHT22;57634;51.136;17.024;2023-03-03T23:07:44;2.70;82.00
70244;DHT22;57634;51.136;17.024;2023-03-03T23:10:47;2.70;82.00
70244;DHT22;57634;51.136;17.024;2023-03-03T23:13:49;2.70;81.90
70244;DHT22;57634;51.136;17.024;2023-03-03T23:16:50;2.70;81.90
70244;DHT22;57634;51.136;17.024;2023-03-03T23:20:21;2.60;82.00
70244;DHT22;57634;51.136;17.024;2023-03-03T23:23:22;2.70;82.10
70244;DHT22;57634;51.136;17.024;2023-03-03T23:26:24;2.70;82.20
70244;DHT22;57634;51.136;17.024;2023-03-03T23:29:25;2.70;82.10
70244;DHT22;57634;51.136;17.024;2023-03-03T23:32:27;2.70;82.00
70244;DHT22;57634;51.136;17.024;2023-03-03T23:35:28;2.60;82.00
70244;DHT22;57634;51.136;17.024;2023-03-03T23:38:29;2.60;82.20
70244;DHT22;57634;51.136;17.024;2023-03-03T23:41:30;2.60;82.20
70244;DHT22;57634;51.136;17.024;2023-03-03T23:44:32;2.70;82.40
70244;DHT22;57634;51.136;17.024;2023-03-03T23:47:33;2.70;82.30
70244;DHT22;57634;51.136;17.024;2023-03-03T23:50:35;2.70;82.30
70244;DHT22;57634;51.136;17.024;2023-03-03T23:53:38;2.70;82.30
70244;DHT22;57634;51.136;17.024;2023-03-03T23:56:39;2.70;82.30
70244;DHT22;57634;51.136;17.024;2023-03-03T23:59:40;2.70;82.20
